Time;durP1;ratioP1;P1;durP2;ratioP2;P2;SDS_P1;SDS_P2;PMS_P1;PMS_P2;Temp;Humidity;BMP_temperature;BMP_pressure;BME280_temperature;BME280_humidity;BME280_pressure;Samples;Min_cycle;Max_cycle;Signal;HPM_P1;HPM_P2
2023/07/09 00:02:21;;;;;;;1.20;1.10;;;;;;;24.45;56.07;97871.56;4975037;28;20202;-28
2023/07/09 00:04:48;;;;;;;1.10;1.10;;;;;;;24.46;56.43;97868.16;4975747;28;20670;-27
2023/07/09 00:07:29;;;;;;;1.00;1.00;;;;;;;24.44;56.48;97865.53;4975878;28;20230;-28
2023/07/09 00:09:55;;;;;;;1.03;1.03;;;;;;;24.44;56.22;97855.25;4959577;28;20212;-28
2023/07/09 00:12:22;;;;;;;1.10;1.10;;;;;;;24.45;56.43;97854.41;4975664;28;20579;-28
2023/07/09 00:14:49;;;;;;;1.17;1.10;;;;;;;24.42;56.27;97853.50;4975334;28;20212;-28
2023/07/09 00:17:30;;;;;;;1.00;1.00;;;;;;;24.45;55.95;97849.28;4975068;28;20215;-28
2023/07/09 00:19:57;;;;;;;1.07;1.07;;;;;;;24.45;56.07;97846.72;4975513;28;20199;-28
2023/07/09 00:22:23;;;;;;;1.00;1.00;;;;;;;24.43;56.12;97856.09;4975890;28;20200;-29
2023/07/09 00:24:50;;;;;;;1.10;1.10;;;;;;;24.45;56.02;97854.41;4975140;28;20219;-28
2023/07/09 00:27:18;;;;;;;1.13;1.10;;;;;;;24.45;56.60;97856.16;4975062;28;20302;-28
2023/07/09 00:29:45;;;;;;;1.10;1.10;;;;;;;24.46;56.12;97855.28;4974077;28;20259;-28
2023/07/09 00:32:16;;;;;;;1.10;1.10;;;;;;;24.47;56.37;97849.31;4975309;28;20258;-28
2023/07/09 00:34:48;;;;;;;1.20;1.10;;;;;;;24.47;56.46;97863.03;4973201;28;20270;-28
2023/07/09 00:37:25;;;;;;;1.07;1.07;;;;;;;24.47;56.02;97860.47;4975203;28;20227;-28
2023/07/09 00:39:52;;;;;;;1.10;1.10;;;;;;;24.47;56.22;97864.72;4973781;28;20210;-28
2023/07/09 00:42:21;;;;;;;1.00;1.00;;;;;;;24.48;56.42;97866.50;4975357;28;20200;-28
2023/07/09 00:44:51;;;;;;;1.10;1.10;;;;;;;24.47;56.39;97872.44;4975233;28;20262;-29
2023/07/09 00:47:55;;;;;;;1.00;1.00;;;;;;;24.45;56.05;97880.09;4973249;28;20314;-28
2023/07/09 00:50:27;;;;;;;1.10;1.10;;;;;;;24.44;56.17;97875.81;4963675;28;20230;-28
2023/07/09 00:52:56;;;;;;;1.27;1.20;;;;;;;24.41;55.97;97870.59;4974160;28;20639;-27
2023/07/09 00:55:24;;;;;;;1.00;1.00;;;;;;;24.41;56.13;97873.19;4970305;28;20254;-27
2023/07/09 00:57:56;;;;;;;1.10;1.10;;;;;;;24.42;56.42;97874.06;4969890;28;20220;-28
2023/07/09 01:00:28;;;;;;;1.10;1.10;;;;;;;24.43;55.97;97873.22;4965790;28;20210;-29
2023/07/09 01:02:54;;;;;;;1.10;1.10;;;;;;;24.41;56.07;97867.16;4971158;28;20656;-28
2023/07/09 01:05:21;;;;;;;1.13;1.10;;;;;;;24.41;56.47;97868.03;4957013;28;20245;-28
2023/07/09 01:07:48;;;;;;;1.20;1.20;;;;;;;24.41;56.51;97870.59;4973437;28;20224;-29
2023/07/09 01:10:18;;;;;;;1.00;1.00;;;;;;;24.39;56.18;97873.97;4974235;28;20256;-27
2023/07/09 01:12:45;;;;;;;1.30;1.30;;;;;;;24.39;56.46;97876.56;4973639;28;20662;-27
2023/07/09 01:15:12;;;;;;;0.93;0.93;;;;;;;24.39;56.58;97881.69;4973111;28;20203;-28
2023/07/09 01:17:39;;;;;;;1.30;1.20;;;;;;;24.40;56.57;97886.88;4975064;28;20278;-28
2023/07/09 01:20:08;;;;;;;1.13;1.13;;;;;;;24.42;56.37;97886.91;4974291;28;20203;-28
2023/07/09 01:22:36;;;;;;;1.43;1.33;;;;;;;24.40;56.38;97884.28;4974697;28;20200;-28
2023/07/09 01:25:06;;;;;;;1.30;1.20;;;;;;;24.42;56.18;97892.88;4974077;28;20228;-31
2023/07/09 01:27:41;;;;;;;1.10;1.10;;;;;;;24.39;56.59;97879.13;4974259;28;20235;-28
2023/07/09 01:30:41;;;;;;;1.00;1.00;;;;;;;24.41;56.22;97886.03;4973495;28;20199;-28
2023/07/09 01:33:09;;;;;;;1.07;1.07;;;;;;;24.42;56.14;97881.75;4943905;28;20207;-28
2023/07/09 01:35:37;;;;;;;1.00;1.00;;;;;;;24.41;56.21;97888.59;4974530;28;20564;-27
2023/07/09 01:38:06;;;;;;;1.20;1.10;;;;;;;24.40;56.23;97884.28;4973666;28;20219;-29
2023/07/09 01:40:33;;;;;;;1.30;1.20;;;;;;;24.41;56.32;97883.44;4974052;28;20227;-28
2023/07/09 01:43:06;;;;;;;1.20;1.20;;;;;;;24.42;56.53;97887.75;4974055;28;20218;-28
2023/07/09 01:45:34;;;;;;;1.30;1.20;;;;;;;24.42;56.47;97892.03;4972842;28;20219;-28
2023/07/09 01:48:01;;;;;;;1.40;1.30;;;;;;;24.42;56.34;97890.31;4974010;28;20598;-30
2023/07/09 01:50:27;;;;;;;1.13;1.13;;;;;;;24.40;56.49;97886.88;4974434;28;20583;-28
2023/07/09 01:52:54;;;;;;;1.77;1.20;;;;;;;24.41;56.15;97890.28;4973945;28;20207;-28
2023/07/09 01:55:21;;;;;;;1.30;1.20;;;;;;;24.41;56.50;97887.72;4973005;28;20247;-28
2023/07/09 01:57:48;;;;;;;1.10;1.10;;;;;;;24.43;56.22;97904.03;4974022;28;20224;-28
2023/07/09 02:00:15;;;;;;;1.40;1.30;;;;;;;24.43;56.24;97899.78;4973654;28;20254;-28
2023/07/09 02:02:43;;;;;;;1.00;1.00;;;;;;;24.42;56.24;97897.19;4973765;28;20207;-28
2023/07/09 02:05:10;;;;;;;1.13;1.10;;;;;;;24.43;56.18;97896.34;4973507;28;20643;-28
2023/07/09 02:07:37;;;;;;;1.07;1.07;;;;;;;24.43;56.18;97904.03;4974046;28;20247;-28
2023/07/09 02:10:03;;;;;;;1.40;1.30;;;;;;;24.42;56.47;97905.72;4973587;28;20199;-29
2023/07/09 02:12:30;;;;;;;1.10;1.10;;;;;;;24.37;56.34;97899.59;4973950;28;20223;-28
2023/07/09 02:14:56;;;;;;;1.03;1.03;;;;;;;24.42;56.15;97913.44;4973622;28;20262;-28
2023/07/09 02:17:23;;;;;;;1.20;1.20;;;;;;;24.42;56.20;97905.72;4973618;28;20259;-30
2023/07/09 02:19:50;;;;;;;1.10;1.10;;;;;;;24.42;56.57;97903.16;4973387;28;20211;-28
2023/07/09 02:22:16;;;;;;;1.27;1.20;;;;;;;24.42;56.23;97892.88;4973590;28;20247;-27
2023/07/09 02:24:43;;;;;;;1.33;1.23;;;;;;;24.43;56.21;97899.78;4973778;28;20207;-28
2023/07/09 02:27:10;;;;;;;1.47;1.37;;;;;;;24.42;56.55;97903.16;4994299;23;20276;-25
2023/07/09 02:29:38;;;;;;;1.20;1.20;;;;;;;24.42;56.38;97897.19;5000221;28;20199;-23
2023/07/09 02:32:04;;;;;;;1.30;1.20;;;;;;;24.43;56.20;97898.91;4997299;28;20723;-22
2023/07/09 02:34:31;;;;;;;1.40;1.30;;;;;;;24.43;56.53;97898.91;5008242;28;20431;-23
2023/07/09 02:36:58;;;;;;;1.50;1.40;;;;;;;24.43;56.29;97904.03;5008070;28;20225;-26
2023/07/09 02:39:25;;;;;;;1.10;1.10;;;;;;;24.42;56.22;97900.59;5011291;28;20582;-23
2023/07/09 02:41:51;;;;;;;1.70;1.60;;;;;;;24.42;56.22;97900.59;5015710;28;20490;-23
2023/07/09 02:44:18;;;;;;;1.40;1.30;;;;;;;24.44;56.22;97908.34;5015361;28;20210;-22
2023/07/09 02:46:45;;;;;;;1.30;1.20;;;;;;;24.43;56.18;97907.50;5015406;28;20696;-26
2023/07/09 02:49:12;;;;;;;1.40;1.30;;;;;;;24.42;56.58;97916.00;5015198;28;20222;-23
2023/07/09 02:51:39;;;;;;;1.30;1.23;;;;;;;24.43;56.17;97906.63;5014582;28;20261;-23
2023/07/09 02:54:06;;;;;;;1.30;1.20;;;;;;;24.42;56.55;97903.16;5015826;28;20241;-23
2023/07/09 02:56:32;;;;;;;1.50;1.40;;;;;;;24.43;56.40;97907.50;5014025;28;20198;-29
2023/07/09 02:58:59;;;;;;;1.10;1.10;;;;;;;24.43;56.53;97909.19;5015196;28;20226;-23
2023/07/09 03:01:26;;;;;;;1.27;1.20;;;;;;;24.44;56.58;97910.91;5009018;28;20198;-22
2023/07/09 03:03:54;;;;;;;1.50;1.40;;;;;;;24.43;56.14;97912.63;5015402;28;20307;-22
2023/07/09 03:06:21;;;;;;;1.23;1.20;;;;;;;24.43;56.52;97919.47;5015212;28;20240;-28
2023/07/09 03:08:48;;;;;;;1.10;1.10;;;;;;;24.43;56.37;97911.75;5015223;28;20300;-22
2023/07/09 03:11:15;;;;;;;1.40;1.30;;;;;;;24.43;56.33;97922.91;5015293;28;20210;-23
2023/07/09 03:13:42;;;;;;;1.20;1.17;;;;;;;24.43;56.40;97924.59;5015197;28;20256;-22
2023/07/09 03:16:08;;;;;;;1.20;1.20;;;;;;;24.43;56.29;97916.88;5014961;28;20287;-23
2023/07/09 03:18:35;;;;;;;1.27;1.23;;;;;;;24.44;56.44;97926.31;5009557;28;20229;-22
2023/07/09 03:21:02;;;;;;;1.60;1.50;;;;;;;24.43;56.36;97919.47;5015228;28;20202;-25
2023/07/09 03:23:28;;;;;;;1.13;1.13;;;;;;;24.43;56.45;97919.47;5014865;28;20210;-22
2023/07/09 03:25:55;;;;;;;1.23;1.20;;;;;;;24.43;56.04;97922.91;5011030;28;20672;-23
2023/07/09 03:28:22;;;;;;;1.40;1.30;;;;;;;24.43;56.14;97925.47;5014451;28;20229;-40
2023/07/09 03:30:49;;;;;;;1.30;1.20;;;;;;;24.44;56.19;97928.91;5014783;28;20260;-22
2023/07/09 03:33:16;;;;;;;1.40;1.30;;;;;;;24.44;56.27;97931.47;5014667;28;20371;-23
2023/07/09 03:35:43;;;;;;;1.33;1.23;;;;;;;24.43;56.22;97933.19;5013863;28;20276;-38
2023/07/09 03:38:10;;;;;;;1.30;1.20;;;;;;;24.44;56.21;97937.47;5011220;28;20226;-22
2023/07/09 03:40:37;;;;;;;1.30;1.20;;;;;;;24.43;56.53;97938.31;5014578;28;20198;-25
2023/07/09 03:43:04;;;;;;;1.23;1.13;;;;;;;24.43;56.18;97940.00;5009074;28;20254;-26
2023/07/09 03:45:32;;;;;;;1.33;1.23;;;;;;;24.43;56.05;97938.31;5013217;28;20226;-22
2023/07/09 03:47:58;;;;;;;1.40;1.30;;;;;;;24.43;56.54;97946.03;5013172;28;20222;-23
2023/07/09 03:50:25;;;;;;;1.33;1.23;;;;;;;24.43;56.33;97951.16;5014398;28;20268;-27
2023/07/09 03:52:52;;;;;;;1.40;1.30;;;;;;;24.43;56.29;97951.16;5013580;28;20260;-23
2023/07/09 03:55:19;;;;;;;1.30;1.20;;;;;;;24.44;56.55;97949.44;5007009;28;20199;-22
2023/07/09 03:57:46;;;;;;;1.20;1.20;;;;;;;24.42;56.47;97939.13;5012470;28;20233;-25
2023/07/09 04:00:13;;;;;;;1.50;1.40;;;;;;;24.45;56.50;97948.63;5014368;28;20260;-23
2023/07/09 04:02:39;;;;;;;1.50;1.40;;;;;;;24.44;56.32;97950.31;5007100;28;20202;-29
2023/07/09 04:05:08;;;;;;;1.40;1.30;;;;;;;24.44;56.22;97947.75;5014524;28;20212;-22
2023/07/09 04:07:35;;;;;;;1.40;1.30;;;;;;;24.44;56.24;97944.31;5014131;28;20586;-23
2023/07/09 04:10:01;;;;;;;1.40;1.30;;;;;;;24.43;56.39;97946.03;5010608;28;20673;-21
2023/07/09 04:12:28;;;;;;;2.03;1.40;;;;;;;24.42;56.40;97946.84;5012801;28;20230;-27
2023/07/09 04:14:54;;;;;;;1.50;1.40;;;;;;;24.41;56.03;97949.38;5014042;28;20210;-22
2023/07/09 04:17:22;;;;;;;1.30;1.20;;;;;;;24.41;56.72;97954.50;5014039;28;20272;-23
2023/07/09 04:19:50;;;;;;;1.40;1.30;;;;;;;24.40;56.25;97952.78;5013827;28;20214;-23
2023/07/09 04:22:17;;;;;;;1.23;1.20;;;;;;;24.40;56.27;97956.22;5014070;28;20577;-23
2023/07/09 04:24:43;;;;;;;1.47;1.37;;;;;;;24.39;56.12;97951.91;5013816;28;20202;-23
2023/07/09 04:27:10;;;;;;;1.40;1.30;;;;;;;24.39;56.25;97956.19;5013468;28;20222;-22
2023/07/09 04:29:38;;;;;;;1.40;1.30;;;;;;;24.39;56.58;97958.75;5013545;28;20685;-26
2023/07/09 04:32:11;;;;;;;1.50;1.40;;;;;;;24.40;56.56;97968.19;5013848;28;20206;-25
2023/07/09 04:34:41;;;;;;;1.30;1.20;;;;;;;24.39;56.18;97967.31;4996994;28;20228;-23
2023/07/09 04:37:07;;;;;;;1.40;1.30;;;;;;;24.39;56.32;97964.75;5013968;28;20712;-24
2023/07/09 04:39:34;;;;;;;1.50;1.40;;;;;;;24.39;56.33;97967.31;5007024;28;20203;-23
2023/07/09 04:42:01;;;;;;;1.17;1.17;;;;;;;24.39;56.35;97969.03;5006207;28;20218;-22
2023/07/09 04:44:28;;;;;;;1.50;1.40;;;;;;;24.39;56.57;97971.63;5007180;28;20199;-29
2023/07/09 04:46:54;;;;;;;1.10;1.10;;;;;;;24.39;55.78;97975.03;5013448;28;20323;-23
2023/07/09 04:49:21;;;;;;;1.20;1.20;;;;;;;24.39;56.97;97974.19;5009267;28;20207;-23
2023/07/09 04:51:47;;;;;;;1.47;1.37;;;;;;;24.39;56.46;97976.75;5013341;28;20210;-22
2023/07/09 04:54:14;;;;;;;1.50;1.40;;;;;;;24.38;56.34;97975.88;5011090;28;20233;-22
2023/07/09 04:56:45;;;;;;;1.33;1.23;;;;;;;24.39;56.65;97981.88;5012775;28;20194;-23
2023/07/09 04:59:12;;;;;;;1.43;1.33;;;;;;;24.39;56.79;97976.75;5005181;28;20198;-22
2023/07/09 05:01:38;;;;;;;1.50;1.40;;;;;;;24.39;56.46;97972.47;5008626;28;20276;-22
2023/07/09 05:04:05;;;;;;;1.50;1.40;;;;;;;24.40;56.66;97978.47;5013180;28;20610;-23
2023/07/09 05:06:32;;;;;;;1.67;1.57;;;;;;;24.41;56.55;97982.78;5012678;28;20218;-23
2023/07/09 05:08:58;;;;;;;1.40;1.30;;;;;;;24.40;56.34;97976.78;5012970;28;20222;-23
2023/07/09 05:11:25;;;;;;;1.47;1.37;;;;;;;24.40;56.67;97986.19;5012999;28;20205;-24
2023/07/09 05:13:51;;;;;;;1.40;1.30;;;;;;;24.39;56.32;97980.16;5005774;28;20731;-22
2023/07/09 05:16:20;;;;;;;1.37;1.27;;;;;;;24.39;56.34;97990.44;5013085;28;20222;-23
2023/07/09 05:18:46;;;;;;;1.43;1.33;;;;;;;24.40;56.49;97992.22;5010949;28;20257;-23
2023/07/09 05:21:13;;;;;;;1.30;1.20;;;;;;;24.40;56.49;97992.22;5012775;28;20661;-26
2023/07/09 05:23:39;;;;;;;1.60;1.50;;;;;;;24.40;56.28;97994.78;5012443;28;20704;-23
2023/07/09 05:26:06;;;;;;;1.63;1.53;;;;;;;24.40;56.36;97989.63;5012792;28;20222;-23
2023/07/09 05:28:33;;;;;;;1.50;1.40;;;;;;;24.40;56.60;97996.47;5011448;28;20226;-23
2023/07/09 05:30:59;;;;;;;1.50;1.40;;;;;;;24.31;56.53;97975.69;5006157;28;20665;-29
2023/07/09 05:33:26;;;;;;;1.50;1.40;;;;;;;24.40;56.81;97999.91;5012455;28;20233;-23
2023/07/09 05:35:53;;;;;;;1.30;1.27;;;;;;;24.41;56.67;97998.19;5012781;28;20592;-23
2023/07/09 05:38:19;;;;;;;1.40;1.30;;;;;;;24.32;56.30;97982.53;5012653;28;20617;-22
2023/07/09 05:40:46;;;;;;;1.10;1.10;;;;;;;24.38;56.34;97995.53;5011911;28;20727;-25
2023/07/09 05:43:12;;;;;;;1.50;1.40;;;;;;;24.41;56.41;98008.47;5009869;28;20209;-26
2023/07/09 05:45:39;;;;;;;1.27;1.27;;;;;;;24.42;56.71;98005.09;5006845;28;20217;-23
2023/07/09 05:48:06;;;;;;;1.33;1.23;;;;;;;24.42;56.40;98007.66;5012160;28;20222;-23
2023/07/09 05:50:33;;;;;;;1.40;1.30;;;;;;;24.42;56.27;98010.22;5011938;28;20202;-24
2023/07/09 05:53:00;;;;;;;1.50;1.40;;;;;;;24.42;56.27;98005.09;5005977;28;20202;-23
2023/07/09 05:55:27;;;;;;;1.30;1.20;;;;;;;24.41;56.30;98003.31;5012452;28;20210;-30
2023/07/09 05:57:53;;;;;;;1.43;1.33;;;;;;;24.42;56.43;98010.22;5012000;28;20245;-23
2023/07/09 06:00:20;;;;;;;1.50;1.40;;;;;;;24.42;56.78;98007.66;5012254;28;20550;-23
2023/07/09 06:02:46;;;;;;;1.50;1.40;;;;;;;24.42;56.57;98008.50;5011824;28;20261;-32
2023/07/09 06:05:14;;;;;;;1.50;1.40;;;;;;;24.42;56.24;98011.06;5012026;28;20213;-23
2023/07/09 06:07:40;;;;;;;1.40;1.30;;;;;;;24.42;56.44;98010.22;5011357;28;20226;-23
2023/07/09 06:10:10;;;;;;;1.30;1.20;;;;;;;24.41;56.16;98006.78;5012377;28;20233;-31
2023/07/09 06:12:36;;;;;;;1.40;1.30;;;;;;;24.42;56.41;98005.09;5011972;28;20250;-22
2023/07/09 06:15:04;;;;;;;1.50;1.40;;;;;;;24.42;56.06;98005.09;5008978;28;20198;-29
2023/07/09 06:17:30;;;;;;;1.50;1.40;;;;;;;24.42;56.55;98005.94;5003952;28;20227;-23
2023/07/09 06:19:57;;;;;;;1.50;1.40;;;;;;;24.42;56.25;98005.09;5011594;28;20297;-30
2023/07/09 06:22:25;;;;;;;1.40;1.30;;;;;;;24.42;56.30;98010.22;5011798;28;20695;-23
2023/07/09 06:24:51;;;;;;;1.20;1.20;;;;;;;24.42;56.59;98013.66;5011580;28;20202;-22
2023/07/09 06:27:18;;;;;;;1.20;1.20;;;;;;;24.40;56.40;98002.47;5011464;28;20217;-24
2023/07/09 06:29:45;;;;;;;1.43;1.33;;;;;;;24.41;56.17;98006.78;5011394;28;20245;-32
2023/07/09 06:32:11;;;;;;;1.33;1.23;;;;;;;24.42;56.41;98010.22;5010383;28;20214;-22
2023/07/09 06:34:38;;;;;;;1.37;1.27;;;;;;;24.42;56.48;98011.06;5011546;28;20206;-29
2023/07/09 06:37:05;;;;;;;1.40;1.30;;;;;;;24.42;56.13;98007.66;5011580;28;20249;-24
2023/07/09 06:39:31;;;;;;;1.57;1.47;;;;;;;24.43;56.50;98017.09;5011321;28;20240;-23
2023/07/09 06:41:58;;;;;;;1.30;1.20;;;;;;;24.43;56.58;98009.38;5009771;28;20257;-23
2023/07/09 06:44:25;;;;;;;1.40;1.30;;;;;;;24.42;56.44;98010.22;5007505;28;20630;-27
2023/07/09 06:46:52;;;;;;;1.40;1.30;;;;;;;24.42;56.46;98008.50;5011651;28;20296;-23
2023/07/09 06:49:18;;;;;;;1.57;1.47;;;;;;;24.41;56.51;98011.91;5000695;28;20294;-37
2023/07/09 06:51:46;;;;;;;1.27;1.17;;;;;;;24.42;56.31;98008.50;5010433;28;20280;-25
2023/07/09 06:54:15;;;;;;;1.40;1.30;;;;;;;24.42;56.55;98008.50;5007012;28;20198;-22
2023/07/09 06:56:41;;;;;;;1.40;1.30;;;;;;;24.41;56.06;98008.47;5009578;28;20214;-22
2023/07/09 06:59:08;;;;;;;1.30;1.20;;;;;;;24.42;56.21;98005.09;5011164;28;20581;-22
2023/07/09 07:01:35;;;;;;;1.30;1.20;;;;;;;24.42;56.03;98007.66;5011573;28;20550;-23
2023/07/09 07:04:01;;;;;;;1.10;1.10;;;;;;;24.42;55.98;98005.94;5011512;28;20203;-25
2023/07/09 07:06:28;;;;;;;1.40;1.30;;;;;;;24.43;56.17;98006.81;5009935;28;20258;-23
2023/07/09 07:08:55;;;;;;;1.10;1.10;;;;;;;24.42;56.09;98007.66;5011050;28;20226;-23
2023/07/09 07:11:22;;;;;;;1.37;1.27;;;;;;;24.43;56.05;98011.97;5011196;28;20206;-23
2023/07/09 07:13:51;;;;;;;1.13;1.13;;;;;;;24.42;56.05;98005.94;5011174;28;20210;-23
2023/07/09 07:16:18;;;;;;;1.50;1.40;;;;;;;24.41;56.39;98011.91;5011071;28;20719;-26
2023/07/09 07:18:44;;;;;;;1.27;1.17;;;;;;;24.42;56.33;98013.66;5011029;28;20237;-24
2023/07/09 07:21:11;;;;;;;1.27;1.20;;;;;;;24.42;56.30;98002.53;5011269;28;20580;-23
2023/07/09 07:23:38;;;;;;;1.47;1.37;;;;;;;24.43;56.38;98006.81;5011175;28;20269;-23
2023/07/09 07:26:04;;;;;;;1.40;1.30;;;;;;;24.42;56.29;98005.94;5010778;28;20337;-32
2023/07/09 07:28:34;;;;;;;1.57;1.47;;;;;;;24.42;56.27;98013.66;5014447;28;20229;-26
2023/07/09 07:31:07;;;;;;;1.37;1.30;;;;;;;24.41;56.21;98005.91;5008393;28;20210;-23
2023/07/09 07:33:33;;;;;;;1.50;1.40;;;;;;;24.41;56.52;98003.31;5014938;28;20202;-23
2023/07/09 07:36:00;;;;;;;1.30;1.20;;;;;;;24.39;56.52;98011.00;5006889;28;20198;-21
2023/07/09 07:38:29;;;;;;;1.00;1.00;;;;;;;24.37;56.48;98009.22;5014347;28;20764;-26
2023/07/09 07:40:56;;;;;;;1.40;1.30;;;;;;;24.38;56.58;98008.38;5014589;28;20214;-23
2023/07/09 07:43:22;;;;;;;1.20;1.20;;;;;;;24.28;55.96;97989.28;5013947;28;20571;-23
2023/07/09 07:45:49;;;;;;;1.40;1.30;;;;;;;24.37;56.29;98007.50;5014619;28;20215;-22
2023/07/09 07:48:16;;;;;;;1.40;1.17;;;;;;;24.38;56.52;98008.38;5014512;28;20218;-23
2023/07/09 07:50:42;;;;;;;1.30;1.20;;;;;;;24.38;56.18;98006.69;5010697;28;20237;-23
2023/07/09 07:53:10;;;;;;;1.30;1.20;;;;;;;24.37;56.40;98004.94;5014261;28;20206;-23
2023/07/09 07:55:37;;;;;;;1.10;1.10;;;;;;;24.37;56.31;98002.38;5014050;28;20220;-33
2023/07/09 07:58:03;;;;;;;1.17;1.17;;;;;;;24.37;56.40;98004.94;5014531;28;20218;-23
2023/07/09 08:00:31;;;;;;;1.10;1.10;;;;;;;24.38;56.14;97990.41;5014251;28;20225;-24
2023/07/09 08:02:57;;;;;;;1.20;1.20;;;;;;;24.38;56.22;97992.97;5014369;28;20226;-23
2023/07/09 08:05:24;;;;;;;1.10;1.10;;;;;;;24.37;56.31;97983.53;5014068;28;20202;-27
2023/07/09 08:07:51;;;;;;;1.33;1.27;;;;;;;24.38;56.36;97986.16;5013822;28;20230;-23
2023/07/09 08:10:18;;;;;;;1.10;1.10;;;;;;;24.37;56.38;97989.53;5013864;28;20206;-23
2023/07/09 08:12:44;;;;;;;1.27;1.20;;;;;;;24.38;56.12;97986.16;5011976;28;20210;-24
2023/07/09 08:15:11;;;;;;;1.40;1.30;;;;;;;24.38;56.39;97990.41;5007285;28;20576;-23
2023/07/09 08:17:38;;;;;;;1.10;1.10;;;;;;;24.37;56.18;97991.25;5012561;28;20229;-23
2023/07/09 08:20:05;;;;;;;1.00;1.00;;;;;;;24.38;56.11;97982.69;5004827;28;20210;-23
2023/07/09 08:22:32;;;;;;;1.30;1.20;;;;;;;24.39;56.44;97984.47;5013710;28;20240;-23
2023/07/09 08:24:59;;;;;;;1.10;1.10;;;;;;;24.38;56.19;97988.72;5013952;28;21680;-34
2023/07/09 08:27:25;;;;;;;1.00;1.00;;;;;;;24.39;56.34;97987.03;5013937;28;20277;-25
2023/07/09 08:29:52;;;;;;;1.10;1.10;;;;;;;24.39;56.54;97981.88;5013592;28;20214;-23
2023/07/09 08:32:18;;;;;;;1.23;1.17;;;;;;;24.38;56.11;97981.00;5013722;28;20202;-23
2023/07/09 08:34:45;;;;;;;1.20;1.20;;;;;;;24.38;56.41;97986.16;5013365;28;20210;-23
2023/07/09 08:37:32;;;;;;;1.20;1.20;;;;;;;24.39;56.08;97980.16;5013381;28;20222;-24
2023/07/09 08:39:58;;;;;;;1.10;1.10;;;;;;;24.39;56.49;97981.88;5013291;28;20210;-23
2023/07/09 08:42:38;;;;;;;1.03;1.03;;;;;;;24.39;56.26;97982.75;5013645;28;20206;-23
2023/07/09 08:45:35;;;;;;;1.00;1.00;;;;;;;24.23;56.26;97954.94;5012430;28;20222;-23
2023/07/09 08:48:14;;;;;;;1.10;1.10;;;;;;;24.39;56.39;97977.59;5012245;28;20696;-27
2023/07/09 08:50:42;;;;;;;1.70;1.23;;;;;;;24.32;56.06;97960.31;4996596;28;20202;-23
2023/07/09 08:53:17;;;;;;;1.00;1.00;;;;;;;24.39;56.43;97980.16;4988708;28;20555;-23
2023/07/09 08:55:44;;;;;;;1.20;1.20;;;;;;;24.40;56.32;97975.91;4996247;28;20237;-31
2023/07/09 08:58:14;;;;;;;1.30;1.23;;;;;;;24.39;56.54;97969.88;4995986;28;20268;-25
2023/07/09 09:01:13;;;;;;;1.10;1.10;;;;;;;24.40;56.25;97968.19;4995952;28;20210;-24
2023/07/09 09:03:45;;;;;;;1.10;1.10;;;;;;;24.39;56.09;97972.47;4955560;28;20215;-23
2023/07/09 09:06:14;;;;;;;1.10;1.10;;;;;;;24.40;56.44;97965.63;5004187;28;20658;-23
2023/07/09 09:08:40;;;;;;;1.00;1.00;;;;;;;24.39;55.95;97967.31;5012953;28;20234;-44
2023/07/09 09:11:42;;;;;;;1.40;1.30;;;;;;;24.40;55.87;97979.34;5013115;28;20210;-24
2023/07/09 09:14:19;;;;;;;1.17;1.17;;;;;;;24.39;56.44;97975.03;5004820;28;20256;-23
2023/07/09 09:16:46;;;;;;;1.30;1.00;;;;;;;24.40;56.56;97970.78;5009457;28;20268;-24
2023/07/09 09:19:22;;;;;;;1.40;1.30;;;;;;;24.39;56.12;97964.75;5011412;28;20213;-23
2023/07/09 09:21:48;;;;;;;1.10;1.10;;;;;;;24.25;56.25;97947.25;5011386;28;20556;-23
2023/07/09 09:24:22;;;;;;;1.00;1.00;;;;;;;24.32;56.07;97951.72;4995323;28;20206;-23
2023/07/09 09:26:48;;;;;;;1.33;1.23;;;;;;;24.41;56.30;97964.78;4995081;28;20206;-23
2023/07/09 09:29:15;;;;;;;1.10;1.10;;;;;;;24.40;56.07;97966.50;5011667;28;20730;-23
2023/07/09 09:31:47;;;;;;;1.10;1.10;;;;;;;24.28;56.33;97945.63;5005342;28;20230;-25
2023/07/09 09:34:21;;;;;;;1.10;1.10;;;;;;;24.41;56.39;97968.25;5005971;28;20213;-23
2023/07/09 09:36:48;;;;;;;1.00;1.00;;;;;;;24.40;55.99;97966.50;5012293;28;20300;-23
2023/07/09 09:39:14;;;;;;;1.00;1.00;;;;;;;24.41;56.26;97968.25;5012400;28;20277;-22
2023/07/09 09:41:42;;;;;;;1.00;1.00;;;;;;;24.41;56.33;97967.34;5010505;28;20292;-23
2023/07/09 09:44:20;;;;;;;1.00;1.00;;;;;;;24.41;56.02;97968.25;4995161;28;20209;-23
2023/07/09 09:46:49;;;;;;;1.07;1.07;;;;;;;24.40;56.41;97965.63;5010983;28;20210;-26
2023/07/09 09:49:16;;;;;;;1.07;1.07;;;;;;;24.41;56.43;97967.34;5004014;28;20202;-23
2023/07/09 09:51:44;;;;;;;1.10;1.10;;;;;;;24.41;55.86;97965.66;5012024;28;20217;-31
2023/07/09 09:54:17;;;;;;;1.10;1.10;;;;;;;24.42;56.40;97966.56;5012064;28;20203;-23
2023/07/09 09:56:44;;;;;;;1.00;1.00;;;;;;;24.40;56.04;97971.66;5010886;28;20261;-23
2023/07/09 09:59:20;;;;;;;1.30;1.20;;;;;;;24.41;56.51;97967.34;5011993;28;20210;-23
2023/07/09 10:01:47;;;;;;;0.90;0.90;;;;;;;24.41;56.50;97964.78;5010890;28;20272;-23
2023/07/09 10:04:18;;;;;;;1.20;1.20;;;;;;;24.37;55.96;97963.00;5012035;28;20206;-25
2023/07/09 10:06:47;;;;;;;1.00;1.00;;;;;;;24.42;55.93;97966.56;4994648;28;20648;-23
2023/07/09 10:09:25;;;;;;;1.03;1.03;;;;;;;24.42;56.41;97953.69;5011768;28;20206;-34
2023/07/09 10:12:08;;;;;;;1.40;1.30;;;;;;;24.37;56.05;97961.25;5012020;28;20625;-23
2023/07/09 10:14:46;;;;;;;0.90;0.90;;;;;;;24.42;56.05;97961.41;4990577;28;20213;-27
2023/07/09 10:17:41;;;;;;;1.10;1.10;;;;;;;24.41;55.86;97959.66;5011585;28;20284;-23
2023/07/09 10:20:18;;;;;;;1.10;1.10;;;;;;;24.41;56.15;97952.81;5001361;28;20594;-28
2023/07/09 10:22:56;;;;;;;1.00;1.00;;;;;;;24.41;56.32;97949.38;5010575;28;20260;-28
2023/07/09 10:25:37;;;;;;;0.90;0.90;;;;;;;24.41;56.13;97952.81;5004694;28;20205;-23
2023/07/09 10:28:16;;;;;;;1.27;1.17;;;;;;;24.41;56.31;97949.38;4994758;28;20237;-23
2023/07/09 10:31:08;;;;;;;1.00;1.00;;;;;;;24.41;56.39;97952.81;5011694;28;20205;-23
2023/07/09 10:33:53;;;;;;;1.30;1.20;;;;;;;24.42;55.89;97946.00;5004881;28;20730;-23
2023/07/09 10:37:00;;;;;;;1.10;1.10;;;;;;;24.42;56.30;97948.56;5008218;28;20257;-23
2023/07/09 10:39:33;;;;;;;0.90;0.90;;;;;;;24.42;56.08;97951.13;5005841;28;20237;-23
2023/07/09 10:42:00;;;;;;;0.90;0.90;;;;;;;24.41;56.44;97939.97;5009275;28;20624;-23
2023/07/09 10:44:36;;;;;;;1.07;1.07;;;;;;;24.42;56.16;97946.84;4994283;28;20199;-23
2023/07/09 10:47:05;;;;;;;1.00;1.00;;;;;;;24.38;56.28;97931.31;5010073;28;20704;-23
2023/07/09 10:49:37;;;;;;;1.00;1.00;;;;;;;24.37;56.23;97937.28;5010332;28;20206;-23
2023/07/09 10:52:20;;;;;;;1.10;1.10;;;;;;;24.40;56.02;97943.38;4994110;28;20202;-26
2023/07/09 10:54:52;;;;;;;1.10;1.10;;;;;;;24.38;56.05;97945.03;5010689;28;20202;-23
2023/07/09 10:57:48;;;;;;;1.00;1.00;;;;;;;24.38;56.06;97939.91;5010180;28;20222;-23
2023/07/09 11:00:18;;;;;;;0.90;0.90;;;;;;;24.36;56.21;97936.41;5010002;28;20210;-23
2023/07/09 11:02:45;;;;;;;1.23;1.20;;;;;;;24.34;55.94;97932.09;5014139;28;20220;-23
2023/07/09 11:05:12;;;;;;;1.20;1.20;;;;;;;24.37;55.78;97938.13;5014256;28;20352;-25
2023/07/09 11:07:58;;;;;;;1.10;1.10;;;;;;;24.38;56.03;97933.88;5015359;28;20284;-23
2023/07/09 11:10:27;;;;;;;1.00;1.00;;;;;;;24.33;56.33;97927.75;4994011;28;20202;-23
2023/07/09 11:12:59;;;;;;;1.10;1.10;;;;;;;24.25;56.08;97911.31;4996833;28;20741;-32
2023/07/09 11:15:36;;;;;;;1.40;1.30;;;;;;;24.38;56.36;97936.44;5010226;28;20233;-23
2023/07/09 11:18:07;;;;;;;1.27;1.10;;;;;;;24.20;56.25;97903.50;5012691;28;20305;-23
2023/07/09 11:20:35;;;;;;;3.20;1.00;;;;;;;24.38;56.35;97933.88;4997602;28;20257;-23
2023/07/09 11:23:04;;;;;;;1.20;1.10;;;;;;;24.39;56.56;97935.66;5011553;28;20194;-23
2023/07/09 11:25:42;;;;;;;1.20;1.10;;;;;;;24.36;56.34;97926.13;5011530;28;20198;-32
2023/07/09 11:28:09;;;;;;;1.30;1.27;;;;;;;24.40;55.90;97935.69;5012892;28;20226;-22
2023/07/09 11:30:48;;;;;;;1.03;1.03;;;;;;;24.41;55.98;97928.81;5015222;28;20285;-23
2023/07/09 11:33:16;;;;;;;1.43;1.20;;;;;;;24.42;56.38;97934.00;5013710;28;20190;-23
2023/07/09 11:35:52;;;;;;;1.23;1.20;;;;;;;24.46;54.69;97919.53;5013752;28;20293;-23
2023/07/09 11:38:24;;;;;;;1.40;1.30;;;;;;;24.50;52.86;97913.63;5013391;28;20673;-36
2023/07/09 11:40:53;;;;;;;1.20;1.10;;;;;;;24.54;51.59;97903.44;5014380;28;20206;-28
2023/07/09 11:43:27;;;;;;;1.20;1.10;;;;;;;24.59;50.38;97906.13;4997091;28;20199;-26
2023/07/09 11:45:55;;;;;;;1.67;1.20;;;;;;;24.60;49.35;97893.31;5013666;28;20328;-23